This is the latest recevied weather packets stored in our database for station/object OE5RBO. If no packets are shown the sender has not sent any weather packets the latest 10 day(s).
| Time | Temp. | Humidity | Pressure | Rain* | Wind** | Luminosity | Snow |
|---|---|---|---|---|---|---|---|
| 1787772491 | 22.22° C | 81% | 1016.9 hPa | 0.25 mm | - | - | - |
| 1787771891 | 22.22° C | 81% | 1016.9 hPa | 0.25 mm | - | - | - |
| 1787771290 | 22.22° C | 82% | 1016.9 hPa | 0.25 mm | - | - | - |
| 1787770690 | 22.22° C | 84% | 1017 hPa | 0.25 mm | - | - | - |
| 1787769489 | 22.22° C | 85% | 1016.9 hPa | 0.25 mm | - | - | - |
| 1787768889 | 22.22° C | 85% | 1016.9 hPa | 0.25 mm | - | - | - |
| 1787768289 | 22.22° C | 84% | 1016.7 hPa | 0.25 mm | - | - | - |
| 1787766488 | 25° C | 75% | 1016.6 hPa | 0.25 mm | - | - | - |
| 1787765887 | 25.56° C | 72% | 1016.6 hPa | 0.25 mm | - | - | - |
| 1787765287 | 25.56° C | 71% | 1016.6 hPa | 0.25 mm | - | - | - |
| 1787764686 | 26.11° C | 69% | 1016.7 hPa | 0.25 mm | - | - | - |
| 1787764086 | 26.67° C | 67% | 1016.6 hPa | 0.25 mm | - | - | - |
| 1787763486 | 26.67° C | 68% | 1016.6 hPa | 0.25 mm | - | - | - |
| 1787762285 | 26.67° C | 68% | 1016.6 hPa | 0.25 mm | - | - | - |
| 1787761685 | 26.67° C | 68% | 1016.7 hPa | 0.25 mm | - | - | - |
| 1787761084 | 27.22° C | 64% | 1016.8 hPa | 0.25 mm | - | - | - |
| 1787760484 | 28.33° C | 57% | 1016.9 hPa | 0.25 mm | - | - | - |
| 1787759884 | 28.33° C | 57% | 1017 hPa | 0.25 mm | - | - | - |
| 1787759283 | 28.33° C | 55% | 1017 hPa | 0.25 mm | - | - | - |
| 1787758683 | 28.89° C | 53% | 1017 hPa | 0.25 mm | - | - | - |
| 1787758083 | 29.44° C | 54% | 1017 hPa | 0.25 mm | - | - | - |
| 1787757482 | 28.89° C | 53% | 1017 hPa | 0.25 mm | - | - | - |
| 1787756882 | 28.33° C | 56% | 1017.1 hPa | 0.25 mm | - | - | - |
| 1787756281 | 27.78° C | 57% | 1017.3 hPa | 0.25 mm | - | - | - |
| 1787755681 | 27.22° C | 60% | 1017.4 hPa | 0.25 mm | - | - | - |
* Rain since midnight (hover to see other rain measurements)
** Current wind speed in m/s (hover to see current wind gust speed)